Time;durP1;ratioP1;P1;durP2;ratioP2;P2;SDS_P1;SDS_P2;PMS_P1;PMS_P2;Temp;Humidity;BMP_temperature;BMP_pressure;BME280_temperature;BME280_humidity;BME280_pressure;Samples;Min_cycle;Max_cycle;Signal;HPM_P1;HPM_P2
2022/12/10 00:01:19;;;;;;;32.25;23.73;;;;;;;;;;10303987;28;20049;-62
2022/12/10 00:06:19;;;;;;;29.02;25.17;;;;;;;;;;10295564;28;20076;-62
2022/12/10 00:11:17;;;;;;;36.90;29.38;;;;;;;;;;10292544;28;20091;-61
2022/12/10 00:16:16;;;;;;;28.48;22.92;;;;;;;;;;10298970;28;20140;-62
2022/12/10 00:21:17;;;;;;;34.47;28.33;;;;;;;;;;10299704;28;20068;-62
2022/12/10 00:26:16;;;;;;;23.83;20.67;;;;;;;;;;10303899;28;20086;-60
2022/12/10 00:31:16;;;;;;;19.60;15.63;;;;;;;;;;10302060;28;20940;-61
2022/12/10 00:36:19;;;;;;;18.77;15.70;;;;;;;;;;10303934;28;20087;-62
2022/12/10 00:41:18;;;;;;;21.02;14.77;;;;;;;;;;10299937;28;20080;-61
2022/12/10 00:46:18;;;;;;;27.77;18.75;;;;;;;;;;10321885;28;20300;-61
2022/12/10 00:51:19;;;;;;;19.38;13.55;;;;;;;;;;10299444;28;20071;-62
2022/12/10 00:56:18;;;;;;;29.70;17.05;;;;;;;;;;10291460;28;20079;-61
2022/12/10 01:01:18;;;;;;;30.52;13.60;;;;;;;;;;10302584;28;20049;-62
2022/12/10 01:06:17;;;;;;;23.10;11.57;;;;;;;;;;10301873;28;20074;-62
2022/12/10 01:11:17;;;;;;;23.52;13.02;;;;;;;;;;10303461;28;20045;-62
2022/12/10 01:16:18;;;;;;;23.98;13.35;;;;;;;;;;10305344;28;20087;-61
2022/12/10 01:21:17;;;;;;;27.38;12.15;;;;;;;;;;10296231;28;20068;-61
2022/12/10 01:26:18;;;;;;;62.70;17.35;;;;;;;;;;10300598;28;20064;-61
2022/12/10 01:31:18;;;;;;;51.50;13.68;;;;;;;;;;10303372;28;20068;-61
2022/12/10 01:36:17;;;;;;;42.95;12.02;;;;;;;;;;10304614;28;20075;-59
2022/12/10 01:41:18;;;;;;;22.30;11.68;;;;;;;;;;10303010;28;20474;-60
2022/12/10 01:46:16;;;;;;;24.88;10.75;;;;;;;;;;10303189;28;20076;-61
2022/12/10 01:51:15;;;;;;;17.63;12.52;;;;;;;;;;10295430;28;20095;-61
2022/12/10 01:56:14;;;;;;;41.50;25.10;;;;;;;;;;10297015;28;20095;-59
2022/12/10 02:01:16;;;;;;;27.40;17.77;;;;;;;;;;10294788;28;20077;-61
2022/12/10 02:06:23;;;;;;;16.25;13.02;;;;;;;;;;10295079;28;20064;-61
2022/12/10 02:11:25;;;;;;;158.98;22.80;;;;;;;;;;10296252;28;20076;-60
2022/12/10 02:16:27;;;;;;;126.40;25.15;;;;;;;;;;10293339;28;20080;-62
2022/12/10 02:21:29;;;;;;;74.22;20.75;;;;;;;;;;10295793;28;20078;-61
2022/12/10 02:26:42;;;;;;;226.70;23.55;;;;;;;;;;10301904;28;20072;-61
2022/12/10 02:31:43;;;;;;;114.18;15.25;;;;;;;;;;10299859;28;20486;-61
2022/12/10 02:36:43;;;;;;;239.68;42.25;;;;;;;;;;10309382;28;20084;-63
2022/12/10 02:41:46;;;;;;;78.82;18.92;;;;;;;;;;10308998;28;20095;-62
2022/12/10 02:46:48;;;;;;;192.75;21.58;;;;;;;;;;10309018;28;20084;-63
2022/12/10 02:51:48;;;;;;;119.97;19.95;;;;;;;;;;10301934;28;20072;-62
2022/12/10 02:56:50;;;;;;;238.77;24.98;;;;;;;;;;10302675;28;20633;-62
2022/12/10 03:01:53;;;;;;;56.55;12.68;;;;;;;;;;10297398;28;20072;-61
2022/12/10 03:06:54;;;;;;;200.32;17.92;;;;;;;;;;10309818;28;20549;-61
2022/12/10 03:11:57;;;;;;;109.30;13.77;;;;;;;;;;10304296;28;20072;-61
2022/12/10 03:16:57;;;;;;;204.90;21.80;;;;;;;;;;10301239;28;20071;-60
2022/12/10 03:21:57;;;;;;;187.15;18.23;;;;;;;;;;10303355;28;20068;-61
2022/12/10 03:26:56;;;;;;;20.42;9.32;;;;;;;;;;10305319;28;20076;-61
2022/12/10 03:31:54;;;;;;;110.10;14.43;;;;;;;;;;10301006;28;20068;-61
2022/12/10 03:36:54;;;;;;;84.57;13.65;;;;;;;;;;10302694;28;20072;-61
2022/12/10 03:41:52;;;;;;;70.55;10.98;;;;;;;;;;10303015;28;20070;-61
2022/12/10 03:46:51;;;;;;;87.85;12.50;;;;;;;;;;10300615;28;20080;-61
2022/12/10 03:51:49;;;;;;;81.03;17.50;;;;;;;;;;10290814;28;20500;-61
2022/12/10 03:56:49;;;;;;;83.40;14.10;;;;;;;;;;10302923;28;20056;-61
2022/12/10 04:01:47;;;;;;;91.78;14.73;;;;;;;;;;10301364;28;20101;-61
2022/12/10 04:06:45;;;;;;;24.92;10.45;;;;;;;;;;10300546;28;20089;-61
2022/12/10 04:11:44;;;;;;;54.92;16.83;;;;;;;;;;10300314;28;20072;-61
2022/12/10 04:16:43;;;;;;;55.97;15.40;;;;;;;;;;10299834;28;20064;-61
2022/12/10 04:26:59;;;;;;;38.40;11.38;;;;;;;;;;10310513;28;20107;-61
2022/12/10 04:31:59;;;;;;;200.77;19.15;;;;;;;;;;10304831;28;20469;-61
2022/12/10 04:36:57;;;;;;;143.98;16.00;;;;;;;;;;10306315;28;20041;-62
2022/12/10 04:41:56;;;;;;;46.22;10.57;;;;;;;;;;10299772;28;20060;-61
2022/12/10 04:46:54;;;;;;;70.97;11.43;;;;;;;;;;10297740;28;20057;-61
2022/12/10 04:51:55;;;;;;;49.88;11.35;;;;;;;;;;10297274;28;20505;-61
2022/12/10 04:56:53;;;;;;;50.28;11.90;;;;;;;;;;10298150;28;20067;-62
2022/12/10 05:01:51;;;;;;;63.80;21.42;;;;;;;;;;10299676;28;20075;-61
2022/12/10 05:06:50;;;;;;;23.75;16.92;;;;;;;;;;10303495;28;20064;-62
2022/12/10 05:11:49;;;;;;;16.27;13.05;;;;;;;;;;10304517;28;20169;-61
2022/12/10 05:16:50;;;;;;;12.40;11.18;;;;;;;;;;10301499;28;20489;-62
2022/12/10 05:27:05;;;;;;;9.23;7.88;;;;;;;;;;10293744;28;20076;-61
2022/12/10 05:32:04;;;;;;;7.82;7.07;;;;;;;;;;10299456;28;20068;-63
2022/12/10 05:37:02;;;;;;;11.57;8.07;;;;;;;;;;10299649;28;20083;-62
2022/12/10 05:42:00;;;;;;;22.55;20.23;;;;;;;;;;10297214;28;20076;-62
2022/12/10 05:47:00;;;;;;;28.27;25.27;;;;;;;;;;10296510;28;20048;-62
2022/12/10 05:51:58;;;;;;;22.77;20.38;;;;;;;;;;10296907;28;20506;-60
2022/12/10 05:56:56;;;;;;;15.00;13.57;;;;;;;;;;10297911;28;20068;-62
2022/12/10 06:01:55;;;;;;;12.68;11.38;;;;;;;;;;10296274;28;20099;-62
2022/12/10 06:06:54;;;;;;;21.77;16.98;;;;;;;;;;10294877;28;20072;-61
2022/12/10 06:11:52;;;;;;;11.80;10.65;;;;;;;;;;10285234;28;20068;-61
2022/12/10 06:16:50;;;;;;;17.30;15.38;;;;;;;;;;10296896;28;20067;-61
2022/12/10 06:21:49;;;;;;;38.28;31.70;;;;;;;;;;10295946;28;20513;-62
2022/12/10 06:26:48;;;;;;;12.85;11.55;;;;;;;;;;10295657;28;20068;-62
2022/12/10 06:31:53;;;;;;;9.00;8.10;;;;;;;;;;10295660;28;20060;-62
2022/12/10 06:36:53;;;;;;;14.07;11.93;;;;;;;;;;10293263;28;20079;-62
2022/12/10 06:41:52;;;;;;;8.93;8.02;;;;;;;;;;10292832;28;20912;-62
2022/12/10 06:46:56;;;;;;;7.15;6.45;;;;;;;;;;10294014;28;20725;-62
2022/12/10 06:51:54;;;;;;;7.35;6.60;;;;;;;;;;10308175;28;20075;-63
2022/12/10 06:56:53;;;;;;;129.20;65.03;;;;;;;;;;10313057;28;20083;-62
2022/12/10 07:01:52;;;;;;;9.48;7.68;;;;;;;;;;10309928;28;20072;-61
2022/12/10 07:06:50;;;;;;;7.45;6.78;;;;;;;;;;10314318;28;20076;-62
2022/12/10 07:11:49;;;;;;;8.60;6.68;;;;;;;;;;10313199;28;20086;-61
2022/12/10 07:16:48;;;;;;;7.53;6.82;;;;;;;;;;10312535;28;20076;-61
2022/12/10 07:21:46;;;;;;;7.45;6.75;;;;;;;;;;10311908;28;20068;-62
2022/12/10 07:26:45;;;;;;;5.90;5.30;;;;;;;;;;10316712;28;20086;-61
2022/12/10 07:31:43;;;;;;;6.13;5.53;;;;;;;;;;10317155;28;20493;-61
2022/12/10 07:36:43;;;;;;;7.95;6.40;;;;;;;;;;10312108;28;20068;-62
2022/12/10 07:41:41;;;;;;;6.53;5.80;;;;;;;;;;10317139;28;20068;-62
2022/12/10 07:46:39;;;;;;;28.38;20.83;;;;;;;;;;10304542;28;20497;-61
2022/12/10 07:51:38;;;;;;;9.85;8.85;;;;;;;;;;10311178;28;20071;-62
2022/12/10 07:56:37;;;;;;;61.63;50.88;;;;;;;;;;10304962;28;20557;-62
2022/12/10 08:01:35;;;;;;;49.13;41.47;;;;;;;;;;10304899;28;20072;-63
2022/12/10 08:06:34;;;;;;;53.75;46.00;;;;;;;;;;10311831;28;20522;-62
2022/12/10 08:11:33;;;;;;;52.20;42.63;;;;;;;;;;10308769;28;20060;-62
2022/12/10 08:16:33;;;;;;;41.47;35.92;;;;;;;;;;10304353;28;20069;-62
2022/12/10 08:21:32;;;;;;;87.43;66.43;;;;;;;;;;10302533;28;20075;-62
2022/12/10 08:26:31;;;;;;;48.78;39.80;;;;;;;;;;10299367;28;20443;-61
2022/12/10 08:31:29;;;;;;;61.13;44.72;;;;;;;;;;10306740;28;20087;-62
2022/12/10 08:36:35;;;;;;;59.88;37.42;;;;;;;;;;10310483;28;20087;-63
2022/12/10 08:41:34;;;;;;;53.08;32.35;;;;;;;;;;10312934;28;20079;-62
2022/12/10 08:46:32;;;;;;;52.03;33.20;;;;;;;;;;10312073;28;20087;-63
2022/12/10 08:51:30;;;;;;;46.83;30.88;;;;;;;;;;10311863;28;20064;-62
2022/12/10 08:56:30;;;;;;;44.00;25.83;;;;;;;;;;10309900;28;20466;-61
2022/12/10 09:01:28;;;;;;;20.55;15.65;;;;;;;;;;10311514;28;20478;-61
2022/12/10 09:06:27;;;;;;;17.92;15.40;;;;;;;;;;10310781;28;20072;-62
2022/12/10 09:11:26;;;;;;;18.75;14.40;;;;;;;;;;10310710;28;20601;-62
2022/12/10 09:16:30;;;;;;;25.35;17.50;;;;;;;;;;10316125;28;20098;-62
2022/12/10 09:21:29;;;;;;;26.48;18.65;;;;;;;;;;10312251;28;20475;-61
2022/12/10 09:26:27;;;;;;;40.22;23.45;;;;;;;;;;10311039;28;20060;-61
2022/12/10 09:31:26;;;;;;;35.03;20.75;;;;;;;;;;10307201;28;20083;-62
2022/12/10 09:36:29;;;;;;;28.30;22.58;;;;;;;;;;10309802;28;20071;-61
2022/12/10 09:41:45;;;;;;;62.25;48.33;;;;;;;;;;10313723;28;20737;-62
2022/12/10 09:46:49;;;;;;;31.83;18.48;;;;;;;;;;10298410;28;20095;-61
2022/12/10 09:51:49;;;;;;;21.42;16.23;;;;;;;;;;10307207;28;20067;-61
2022/12/10 09:56:47;;;;;;;24.80;18.08;;;;;;;;;;10321308;28;20454;-61
2022/12/10 10:01:46;;;;;;;29.00;24.70;;;;;;;;;;10317107;28;20536;-62
2022/12/10 10:06:44;;;;;;;30.75;25.13;;;;;;;;;;10317249;28;20468;-62
2022/12/10 10:11:45;;;;;;;33.22;20.73;;;;;;;;;;10316633;28;20056;-62
2022/12/10 10:16:46;;;;;;;30.35;20.95;;;;;;;;;;10315278;28;20056;-62
2022/12/10 10:21:46;;;;;;;69.97;48.53;;;;;;;;;;10310407;28;20187;-61
2022/12/10 10:26:46;;;;;;;43.47;25.05;;;;;;;;;;10308588;28;20068;-61
2022/12/10 10:31:44;;;;;;;31.67;22.55;;;;;;;;;;10324373;28;20071;-62
2022/12/10 10:36:42;;;;;;;37.10;23.88;;;;;;;;;;10317229;28;20068;-61
2022/12/10 10:41:40;;;;;;;106.65;65.15;;;;;;;;;;10317840;28;20064;-61
2022/12/10 10:46:41;;;;;;;57.92;39.03;;;;;;;;;;10322494;28;20072;-63
2022/12/10 10:51:42;;;;;;;63.10;41.97;;;;;;;;;;10327506;28;20068;-61
2022/12/10 10:56:42;;;;;;;30.88;21.83;;;;;;;;;;10326084;28;20532;-62
2022/12/10 11:01:48;;;;;;;45.45;28.50;;;;;;;;;;10325717;28;20496;-63
2022/12/10 11:06:47;;;;;;;106.20;69.18;;;;;;;;;;10323106;28;20080;-62
2022/12/10 11:11:50;;;;;;;58.88;38.97;;;;;;;;;;10319886;28;20091;-61
2022/12/10 11:16:50;;;;;;;52.20;38.33;;;;;;;;;;10308999;28;20071;-61
2022/12/10 11:21:49;;;;;;;51.22;32.42;;;;;;;;;;10310726;28;20502;-61
2022/12/10 11:26:54;;;;;;;46.50;34.25;;;;;;;;;;10305865;28;20068;-61
2022/12/10 11:32:02;;;;;;;46.47;35.33;;;;;;;;;;10310914;28;20119;-63
2022/12/10 11:37:04;;;;;;;61.47;44.05;;;;;;;;;;10317977;28;20056;-63
2022/12/10 11:42:05;;;;;;;51.05;36.10;;;;;;;;;;10315196;28;20548;-64
2022/12/10 11:47:17;;;;;;;56.55;31.58;;;;;;;;;;10325591;28;20094;-65
2022/12/10 11:52:20;;;;;;;61.97;43.20;;;;;;;;;;10319332;28;20083;-63
2022/12/10 11:57:23;;;;;;;63.45;43.47;;;;;;;;;;10320352;28;20064;-62
2022/12/10 12:02:33;;;;;;;47.70;29.38;;;;;;;;;;10321824;28;20086;-61
2022/12/10 12:07:39;;;;;;;44.00;26.40;;;;;;;;;;10246614;28;20152;-63
2022/12/10 12:12:42;;;;;;;35.75;24.98;;;;;;;;;;10233637;28;20077;-63
2022/12/10 12:17:43;;;;;;;41.15;26.00;;;;;;;;;;10233331;28;20542;-62
2022/12/10 12:22:44;;;;;;;51.28;28.85;;;;;;;;;;10232910;28;20077;-61
2022/12/10 12:27:44;;;;;;;51.38;33.72;;;;;;;;;;10242263;28;20083;-61
2022/12/10 12:32:50;;;;;;;44.53;31.33;;;;;;;;;;10240413;28;20076;-62
2022/12/10 12:37:51;;;;;;;43.55;27.75;;;;;;;;;;10240858;28;20655;-61
2022/12/10 12:42:53;;;;;;;47.65;27.92;;;;;;;;;;10239051;28;20504;-60
2022/12/10 12:47:57;;;;;;;69.70;48.15;;;;;;;;;;10231980;28;20084;-61
2022/12/10 12:53:00;;;;;;;45.65;30.85;;;;;;;;;;10236116;28;20060;-59
2022/12/10 12:58:05;;;;;;;66.25;45.75;;;;;;;;;;10232613;28;20065;-61
2022/12/10 13:03:18;;;;;;;54.70;44.72;;;;;;;;;;10228473;28;20506;-62
2022/12/10 13:08:24;;;;;;;68.53;44.40;;;;;;;;;;10228301;28;20076;-62
2022/12/10 13:13:25;;;;;;;47.28;37.65;;;;;;;;;;10230501;28;20482;-61
2022/12/10 13:18:38;;;;;;;84.07;59.05;;;;;;;;;;10231413;28;20088;-62
2022/12/10 13:23:48;;;;;;;91.65;69.82;;;;;;;;;;10229271;28;20521;-62
2022/12/10 13:28:51;;;;;;;47.35;36.28;;;;;;;;;;10226414;28;20061;-62
2022/12/10 13:33:51;;;;;;;46.78;36.50;;;;;;;;;;10227866;28;20514;-62
2022/12/10 13:38:58;;;;;;;47.95;31.92;;;;;;;;;;10230163;28;20080;-63
2022/12/10 13:49:17;;;;;;;41.58;30.83;;;;;;;;;;10228990;28;20099;-62
2022/12/10 13:54:33;;;;;;;77.75;53.88;;;;;;;;;;10231026;28;20069;-62
2022/12/10 13:59:41;;;;;;;37.60;29.80;;;;;;;;;;10228808;28;20132;-60
2022/12/10 14:04:50;;;;;;;33.17;27.85;;;;;;;;;;10230875;28;20077;-61
2022/12/10 14:09:51;;;;;;;28.65;21.95;;;;;;;;;;10230012;28;20066;-62
2022/12/10 14:14:53;;;;;;;30.02;24.13;;;;;;;;;;10232220;28;20119;-61
2022/12/10 14:19:54;;;;;;;39.78;28.50;;;;;;;;;;10231705;28;20076;-59
2022/12/10 14:24:53;;;;;;;95.60;78.82;;;;;;;;;;10229521;28;20096;-62
2022/12/10 14:29:55;;;;;;;84.63;70.03;;;;;;;;;;10231515;28;20076;-62
2022/12/10 14:34:54;;;;;;;186.68;133.23;;;;;;;;;;10228562;28;20192;-62
2022/12/10 14:39:53;;;;;;;129.32;102.15;;;;;;;;;;10230179;28;20114;-61
2022/12/10 14:44:56;;;;;;;97.45;78.60;;;;;;;;;;10229324;28;20081;-62
2022/12/10 14:49:55;;;;;;;87.88;64.43;;;;;;;;;;10227316;28;20081;-61
2022/12/10 14:54:53;;;;;;;107.03;76.72;;;;;;;;;;10228762;28;20061;-61
2022/12/10 14:59:56;;;;;;;100.63;79.93;;;;;;;;;;10229447;28;20740;-61
2022/12/10 15:04:54;;;;;;;97.18;75.53;;;;;;;;;;10228258;28;20076;-61
2022/12/10 15:09:53;;;;;;;113.57;80.78;;;;;;;;;;10227085;28;20108;-60
2022/12/10 15:14:54;;;;;;;101.65;74.43;;;;;;;;;;10229366;28;20101;-60
2022/12/10 15:19:52;;;;;;;201.48;144.02;;;;;;;;;;10230641;28;20073;-61
2022/12/10 15:24:51;;;;;;;52.70;41.22;;;;;;;;;;10227355;28;20069;-61
2022/12/10 15:29:50;;;;;;;40.92;30.30;;;;;;;;;;10231437;28;20080;-61
2022/12/10 15:34:50;;;;;;;26.35;16.80;;;;;;;;;;10230232;28;20549;-61
2022/12/10 15:39:49;;;;;;;112.35;90.97;;;;;;;;;;10235342;28;20085;-62
2022/12/10 15:44:48;;;;;;;41.97;32.92;;;;;;;;;;10235165;28;20080;-61
2022/12/10 15:49:46;;;;;;;37.25;30.20;;;;;;;;;;10235953;28;20084;-61
2022/12/10 15:54:47;;;;;;;43.90;39.08;;;;;;;;;;10235808;28;20087;-62
2022/12/10 15:59:46;;;;;;;48.88;39.83;;;;;;;;;;10234844;28;20065;-62
2022/12/10 16:04:45;;;;;;;37.67;31.00;;;;;;;;;;10235403;28;20077;-63
2022/12/10 16:09:43;;;;;;;36.30;30.00;;;;;;;;;;10234853;28;20569;-63
2022/12/10 16:14:46;;;;;;;45.70;37.75;;;;;;;;;;10236190;28;20073;-61
2022/12/10 16:19:44;;;;;;;35.65;26.95;;;;;;;;;;10234989;28;20491;-62
2022/12/10 16:24:42;;;;;;;40.63;27.50;;;;;;;;;;10235564;28;20179;-63
2022/12/10 16:29:44;;;;;;;29.50;23.00;;;;;;;;;;10234350;28;20076;-63
2022/12/10 16:34:42;;;;;;;22.80;15.02;;;;;;;;;;10234060;28;20095;-63
2022/12/10 16:39:41;;;;;;;18.42;15.55;;;;;;;;;;10231384;28;20065;-63
2022/12/10 16:44:48;;;;;;;15.15;11.07;;;;;;;;;;10233871;28;20486;-63
2022/12/10 16:49:46;;;;;;;24.80;17.27;;;;;;;;;;10230486;28;20073;-63
2022/12/10 16:54:45;;;;;;;15.05;12.18;;;;;;;;;;10228633;28;20068;-63
2022/12/10 16:59:43;;;;;;;17.95;12.07;;;;;;;;;;10232542;28;20080;-63
2022/12/10 17:04:42;;;;;;;21.65;13.27;;;;;;;;;;10234758;28;20451;-63
2022/12/10 17:09:41;;;;;;;17.45;13.75;;;;;;;;;;10231763;28;20069;-63
2022/12/10 17:14:40;;;;;;;22.35;13.95;;;;;;;;;;10232033;28;20069;-64
2022/12/10 17:19:39;;;;;;;16.08;12.52;;;;;;;;;;10233014;28;20518;-63
2022/12/10 17:24:39;;;;;;;24.27;13.88;;;;;;;;;;10231836;28;20471;-64
2022/12/10 17:29:38;;;;;;;29.90;14.90;;;;;;;;;;10231305;28;20498;-64
2022/12/10 17:34:37;;;;;;;42.30;26.02;;;;;;;;;;10233656;28;20107;-64
2022/12/10 17:39:35;;;;;;;48.80;30.58;;;;;;;;;;10234858;28;20088;-63
2022/12/10 17:44:34;;;;;;;49.47;26.50;;;;;;;;;;10234217;28;20470;-62
2022/12/10 17:49:34;;;;;;;37.30;21.73;;;;;;;;;;10233527;28;20084;-62
2022/12/10 17:54:32;;;;;;;33.72;18.08;;;;;;;;;;10233254;28;20096;-62
2022/12/10 17:59:31;;;;;;;27.75;17.05;;;;;;;;;;10232470;28;20073;-63
2022/12/10 18:04:31;;;;;;;22.30;10.98;;;;;;;;;;10233681;28;20073;-63
2022/12/10 18:09:29;;;;;;;14.15;10.27;;;;;;;;;;10233152;28;20069;-63
2022/12/10 18:14:27;;;;;;;8.45;6.03;;;;;;;;;;10233013;28;20061;-64
2022/12/10 18:19:25;;;;;;;42.83;32.03;;;;;;;;;;10231630;28;20080;-62
2022/12/10 18:24:25;;;;;;;17.23;9.85;;;;;;;;;;10230149;28;20459;-63
2022/12/10 18:29:23;;;;;;;12.38;8.48;;;;;;;;;;10231187;28;20080;-63
2022/12/10 18:34:22;;;;;;;11.65;8.43;;;;;;;;;;10230273;28;20065;-63
2022/12/10 18:39:21;;;;;;;16.50;13.63;;;;;;;;;;10231318;28;20490;-64
2022/12/10 18:44:23;;;;;;;23.15;10.77;;;;;;;;;;10232979;28;20085;-62
2022/12/10 18:49:21;;;;;;;20.13;10.05;;;;;;;;;;10227151;28;20092;-62
2022/12/10 18:54:21;;;;;;;25.98;13.65;;;;;;;;;;10232853;28;20138;-63
2022/12/10 18:59:20;;;;;;;27.80;15.07;;;;;;;;;;10230926;28;20582;-63
2022/12/10 19:04:18;;;;;;;13.57;6.93;;;;;;;;;;10247237;28;20596;-63
2022/12/10 19:09:18;;;;;;;16.52;9.93;;;;;;;;;;10232621;28;20080;-63
2022/12/10 19:14:18;;;;;;;16.20;9.13;;;;;;;;;;10237395;28;20514;-62
2022/12/10 19:19:18;;;;;;;15.38;9.48;;;;;;;;;;10239916;28;20076;-62
2022/12/10 19:24:16;;;;;;;20.92;11.27;;;;;;;;;;10239842;28;20495;-61
2022/12/10 19:29:15;;;;;;;11.75;7.32;;;;;;;;;;10239072;28;20482;-62
2022/12/10 19:34:14;;;;;;;20.42;11.48;;;;;;;;;;10238188;28;20085;-63
2022/12/10 19:39:16;;;;;;;47.05;29.90;;;;;;;;;;10238874;28;20080;-63
2022/12/10 19:44:15;;;;;;;29.40;18.23;;;;;;;;;;10237167;28;20080;-63
2022/12/10 19:49:14;;;;;;;18.17;10.00;;;;;;;;;;10238437;28;20115;-63
2022/12/10 19:54:12;;;;;;;21.23;9.30;;;;;;;;;;10237069;28;20080;-63
2022/12/10 19:59:13;;;;;;;17.00;8.07;;;;;;;;;;10236708;28;20079;-62
2022/12/10 20:04:13;;;;;;;12.55;7.65;;;;;;;;;;10236637;28;20115;-62
2022/12/10 20:09:15;;;;;;;22.98;11.98;;;;;;;;;;10236447;28;20077;-63
2022/12/10 20:14:15;;;;;;;8.90;6.65;;;;;;;;;;10236767;28;20065;-62
2022/12/10 20:19:13;;;;;;;17.23;7.13;;;;;;;;;;10235837;28;20087;-63
2022/12/10 20:24:12;;;;;;;11.68;7.57;;;;;;;;;;10234611;28;20081;-63
2022/12/10 20:29:12;;;;;;;25.35;17.40;;;;;;;;;;10235371;28;20084;-63
2022/12/10 20:34:17;;;;;;;20.38;7.85;;;;;;;;;;10235495;28;20551;-63
2022/12/10 20:39:18;;;;;;;22.77;18.75;;;;;;;;;;10227034;28;20096;-62
2022/12/10 20:44:16;;;;;;;11.65;8.55;;;;;;;;;;10236889;28;20498;-61
2022/12/10 20:49:16;;;;;;;26.88;8.88;;;;;;;;;;10226275;28;20179;-63
2022/12/10 20:54:16;;;;;;;18.55;10.48;;;;;;;;;;10235503;28;20073;-63
2022/12/10 20:59:15;;;;;;;15.95;6.95;;;;;;;;;;10236217;28;20080;-63
2022/12/10 21:04:13;;;;;;;30.88;13.48;;;;;;;;;;10235970;28;20076;-62
2022/12/10 21:09:12;;;;;;;15.95;9.90;;;;;;;;;;10233622;28;20156;-62
2022/12/10 21:14:11;;;;;;;18.80;9.40;;;;;;;;;;10233832;28;20077;-63
2022/12/10 21:19:30;;;;;;;19.88;14.00;;;;;;;;;;10235695;28;20491;-61
2022/12/10 21:24:28;;;;;;;30.83;20.02;;;;;;;;;;10235420;28;20076;-62
2022/12/10 21:29:28;;;;;;;14.70;6.18;;;;;;;;;;10232935;28;20080;-62
2022/12/10 21:34:26;;;;;;;19.13;10.90;;;;;;;;;;10233131;28;20046;-63
2022/12/10 21:39:24;;;;;;;18.98;10.82;;;;;;;;;;10234117;28;20084;-63
2022/12/10 21:44:22;;;;;;;23.25;11.52;;;;;;;;;;10233809;28;20075;-64
2022/12/10 21:49:22;;;;;;;18.85;10.13;;;;;;;;;;10234404;28;20085;-63
2022/12/10 21:54:20;;;;;;;20.90;8.40;;;;;;;;;;10234274;28;20076;-62
2022/12/10 21:59:18;;;;;;;25.52;12.95;;;;;;;;;;10233424;28;20045;-63
2022/12/10 22:04:16;;;;;;;29.58;16.95;;;;;;;;;;10234043;28;20081;-63
2022/12/10 22:09:16;;;;;;;31.83;13.00;;;;;;;;;;10232912;28;20503;-64
2022/12/10 22:14:14;;;;;;;21.20;11.55;;;;;;;;;;10233463;28;20081;-63
2022/12/10 22:19:13;;;;;;;20.50;10.68;;;;;;;;;;10231953;28;20527;-63
2022/12/10 22:24:11;;;;;;;20.75;12.52;;;;;;;;;;10231424;28;20081;-62
2022/12/10 22:29:11;;;;;;;23.67;11.82;;;;;;;;;;10233509;28;20572;-64
2022/12/10 22:34:09;;;;;;;19.20;9.32;;;;;;;;;;10244407;28;20499;-63
2022/12/10 22:39:07;;;;;;;17.42;10.65;;;;;;;;;;10233408;28;20080;-63
2022/12/10 22:44:05;;;;;;;19.70;11.07;;;;;;;;;;10232828;28;20100;-63
2022/12/10 22:49:05;;;;;;;26.98;13.50;;;;;;;;;;10237858;28;20087;-63
2022/12/10 22:54:03;;;;;;;14.98;6.60;;;;;;;;;;10241569;28;20076;-63
2022/12/10 22:59:01;;;;;;;18.30;10.25;;;;;;;;;;10240672;28;20073;-63
2022/12/10 23:03:59;;;;;;;22.90;13.07;;;;;;;;;;10239988;28;20077;-64
2022/12/10 23:08:59;;;;;;;28.75;16.02;;;;;;;;;;10238630;28;20073;-63
2022/12/10 23:13:57;;;;;;;70.38;38.47;;;;;;;;;;10240998;28;20073;-64
2022/12/10 23:18:55;;;;;;;16.23;9.90;;;;;;;;;;10237613;28;20096;-64
2022/12/10 23:23:54;;;;;;;12.48;8.10;;;;;;;;;;10239808;28;20098;-63
2022/12/10 23:28:53;;;;;;;18.10;10.10;;;;;;;;;;10241415;28;20061;-63
2022/12/10 23:33:52;;;;;;;17.27;11.27;;;;;;;;;;10241350;28;20100;-62
2022/12/10 23:38:50;;;;;;;26.58;14.23;;;;;;;;;;10251775;28;20099;-63
2022/12/10 23:43:51;;;;;;;14.88;8.60;;;;;;;;;;10254755;28;20191;-63
2022/12/10 23:48:55;;;;;;;10.48;6.28;;;;;;;;;;10240929;28;20064;-63
2022/12/10 23:53:54;;;;;;;42.17;22.33;;;;;;;;;;10238490;28;20084;-62
2022/12/10 23:58:52;;;;;;;9.65;4.80;;;;;;;;;;10237922;28;20064;-62
